| time (UTC) | temp F | wind direction | speed MPH | gust MPH | rain 1hr in | rain 24hr in | rain mn in | humidity % | barometer mb |
| 20260506023047 | 45 | 0 | 0.0 | 0.0 | 0.01 | 0.46 | 0.06 | 10 | 1008.1 |
| 20260506022045 | 45 | 0 | 0.0 | 0.0 | 0.01 | 0.46 | 0.06 | 10 | 1008.1 |
| 20260506021046 | 45 | 0 | 0.0 | 0.0 | 0.01 | 0.46 | 0.06 | 99 | 1008.1 |
| 20260506020046 | 45 | 0 | 0.0 | 0.0 | 0.01 | 0.46 | 0.06 | 99 | 1008.1 |
| 20260506015046 | 45 | 0 | 0.0 | 0.0 | 0.01 | 0.46 | 0.06 | 99 | 1008.2 |
| 20260506014048 | 45 | 0 | 0.0 | 0.0 | 0.00 | 0.46 | 0.06 | 10 | 1008.2 |
| 20260506013049 | 45 | 0 | 0.0 | 0.0 | 0.00 | 0.46 | 0.06 | 10 | 1008.3 |
| 20260506012044 | 46 | 0 | 0.0 | 0.0 | 0.00 | 0.46 | 0.06 | 10 | 1008.3 |
| 20260506011044 | 46 | 0 | 0.0 | 0.0 | 0.01 | 0.46 | 0.06 | 10 | 1008.4 |
| 20260506010043 | 46 | 0 | 0.0 | 0.0 | 0.01 | 0.46 | 0.06 | 10 | 1008.4 |
| 20260506004046 | 46 | 0 | 0.0 | 0.0 | 0.01 | 0.46 | 0.06 | 10 | 1008.5 |
| 20260506003047 | 46 | 0 | 0.0 | 0.0 | 0.01 | 0.46 | 0.06 | 10 | 1008.6 |
| 20260506002047 | 46 | 0 | 0.0 | 0.0 | 0.01 | 0.46 | 0.06 | 99 | 1008.7 |
| 20260506001046 | 46 | 0 | 0.0 | 0.0 | 0.02 | 0.46 | 0.06 | 99 | 1008.8 |
| 20260505235057 | 46 | 0 | 0.0 | 0.0 | 0.02 | 0.45 | 0.05 | 99 | 1009.0 |
| 20260505234055 | 46 | 0 | 0.0 | 0.0 | 0.02 | 0.45 | 0.05 | 99 | 1009.1 |
| 20260505233053 | 46 | 0 | 0.0 | 0.0 | 0.03 | 0.45 | 0.05 | 99 | 1009.1 |
| 20260505232057 | 46 | 0 | 0.0 | 0.0 | 0.04 | 0.45 | 0.05 | 99 | 1009.1 |
| 20260505231054 | 46 | 0 | 0.0 | 0.0 | 0.05 | 0.45 | 0.05 | 99 | 1009.1 |
| 20260505230058 | 46 | 0 | 0.0 | 0.0 | 0.04 | 0.44 | 0.04 | 99 | 1009.2 |
| 20260505225056 | 46 | 0 | 0.0 | 0.0 | 0.04 | 0.44 | 0.04 | 99 | 1009.3 |
| 20260505224056 | 46 | 0 | 0.0 | 0.0 | 0.05 | 0.43 | 0.03 | 99 | 1009.3 |
| 20260505223057 | 46 | 0 | 0.0 | 0.0 | 0.05 | 0.43 | 0.02 | 99 | 1009.3 |
| 20260505222055 | 46 | 0 | 0.0 | 0.0 | 0.05 | 0.42 | 0.02 | 99 | 1009.3 |
| 20260505221057 | 46 | 0 | 0.0 | 0.0 | 0.04 | 0.42 | 0.01 | 99 | 1009.3 |
| 20260505220054 | 46 | 0 | 0.0 | 0.0 | 0.03 | 0.41 | 0.00 | 99 | 1009.4 |
| 20260505215103 | 47 | 0 | 0.0 | 0.0 | 0.04 | 0.41 | 0.41 | 99 | 1009.4 |
| 20260505214104 | 47 | 0 | 0.0 | 0.0 | 0.05 | 0.41 | 0.41 | 99 | 1009.4 |
| 20260505213101 | 47 | 0 | 0.0 | 0.0 | 0.04 | 0.39 | 0.39 | 99 | 1009.5 |
| 20260505210058 | 47 | 0 | 0.0 | 0.0 | 0.04 | 0.38 | 0.38 | 99 | 1009.6 |
| 20260505205058 | 47 | 0 | 0.0 | 0.0 | 0.05 | 0.38 | 0.38 | 99 | 1009.6 |
| 20260505204058 | 47 | 0 | 0.0 | 0.0 | 0.05 | 0.37 | 0.37 | 99 | 1009.6 |
| 20260505203102 | 47 | 0 | 0.0 | 0.0 | 0.05 | 0.36 | 0.36 | 99 | 1009.6 |
| 20260505202101 | 47 | 0 | 0.0 | 0.0 | 0.05 | 0.35 | 0.35 | 99 | 1009.5 |
| 20260505200056 | 47 | 0 | 0.0 | 0.0 | 0.05 | 0.35 | 0.35 | 99 | 1009.5 |
| 20260505195056 | 48 | 0 | 0.0 | 0.0 | 0.05 | 0.35 | 0.34 | 99 | 1009.4 |
| 20260505194100 | 48 | 0 | 0.0 | 0.0 | 0.05 | 0.34 | 0.33 | 99 | 1009.4 |
| 20260505193101 | 48 | 0 | 0.0 | 0.0 | 0.05 | 0.33 | 0.32 | 99 | 1009.3 |
| 20260505192052 | 48 | 0 | 0.0 | 0.0 | 0.05 | 0.32 | 0.31 | 99 | 1009.2 |
| 20260505191058 | 48 | 0 | 0.0 | 0.0 | 0.05 | 0.31 | 0.31 | 98 | 1009.2 |
| 20260505190058 | 48 | 0 | 0.0 | 0.0 | 0.06 | 0.31 | 0.31 | 98 | 1009.2 |
| 20260505185056 | 49 | 0 | 0.0 | 0.0 | 0.06 | 0.31 | 0.30 | 98 | 1009.2 |
| 20260505183054 | 49 | 0 | 0.0 | 0.0 | 0.06 | 0.30 | 0.28 | 98 | 1009.1 |
| 20260505181055 | 49 | 0 | 0.0 | 0.0 | 0.06 | 0.28 | 0.27 | 98 | 1009.1 |
| 20260505175052 | 50 | 0 | 0.0 | 0.0 | 0.06 | 0.27 | 0.25 | 98 | 1009.1 |
| 20260505174052 | 50 | 0 | 0.0 | 0.0 | 0.07 | 0.27 | 0.24 | 98 | 1009.1 |
| 20260505173056 | 50 | 0 | 0.0 | 0.0 | 0.08 | 0.26 | 0.24 | 98 | 1009.1 |
| 20260505172049 | 50 | 0 | 0.0 | 0.0 | 0.09 | 0.25 | 0.23 | 98 | 1009.1 |
| 20260505171055 | 50 | 0 | 0.0 | 0.0 | 0.09 | 0.24 | 0.22 | 98 | 1009.1 |
| 20260505165054 | 50 | 0 | 0.0 | 0.0 | 0.14 | 0.23 | 0.20 | 98 | 1009.3 |
| 20260505164054 | 51 | 0 | 0.0 | 0.0 | 0.15 | 0.21 | 0.19 | 98 | 1009.3 |
| 20260505163056 | 51 | 0 | 0.0 | 0.0 | 0.14 | 0.20 | 0.17 | 98 | 1009.3 |
| 20260505162052 | 51 | 0 | 0.0 | 0.0 | 0.14 | 0.18 | 0.16 | 98 | 1009.3 |
| 20260505161054 | 51 | 0 | 0.0 | 0.0 | 0.13 | 0.17 | 0.14 | 97 | 1009.3 |
| 20260505153052 | 51 | 0 | 0.0 | 0.0 | 0.02 | 0.07 | 0.04 | 96 | 1009.5 |
| 20260505152055 | 52 | 0 | 0.0 | 0.0 | 0.02 | 0.07 | 0.03 | 95 | 1009.5 |
| 20260505151052 | 52 | 0 | 0.0 | 0.0 | 0.00 | 0.06 | 0.02 | 93 | 1009.4 |
| 20260505124049 | 57 | 0 | 0.0 | 0.0 | 0.00 | 0.13 | 0.02 | 82 | 1009.5 |
| 20260505123051 | 57 | 0 | 0.0 | 0.0 | 0.00 | 0.17 | 0.02 | 84 | 1009.5 |
| 20260505122045 | 56 | 0 | 0.0 | 0.0 | 0.00 | 0.17 | 0.02 | 85 | 1009.8 |
| 20260505121049 | 56 | 0 | 0.0 | 0.0 | 0.00 | 0.17 | 0.02 | 84 | 1009.9 |
| 20260505120047 | 56 | 0 | 0.0 | 0.0 | 0.00 | 0.17 | 0.02 | 84 | 1009.9 |
| 20260505115047 | 57 | 0 | 0.0 | 0.0 | 0.00 | 0.17 | 0.02 | 84 | 1009.8 |
| 20260505114049 | 57 | 0 | 0.0 | 0.0 | 0.00 | 0.17 | 0.02 | 84 | 1009.9 |
| 20260505113049 | 57 | 0 | 0.0 | 0.0 | 0.00 | 0.17 | 0.02 | 85 | 1009.9 |
| 20260505112050 | 57 | 0 | 0.0 | 0.0 | 0.00 | 0.17 | 0.02 | 85 | 1010.0 |
| 20260505111048 | 57 | 0 | 0.0 | 0.0 | 0.00 | 0.17 | 0.02 | 87 | 1010.1 |
| 20260505102100 | 54 | 0 | 0.0 | 0.0 | 0.00 | 0.17 | 0.02 | 89 | 1010.7 |
| 20260505101051 | 55 | 0 | 0.0 | 0.0 | 0.00 | 0.17 | 0.02 | 88 | 1010.7 |
| 20260505100047 | 55 | 0 | 0.0 | 0.0 | 0.00 | 0.17 | 0.02 | 88 | 1010.6 |
| 20260505095050 | 55 | 0 | 0.0 | 0.0 | 0.00 | 0.17 | 0.02 | 90 | 1010.6 |
| 20260505094050 | 55 | 0 | 0.0 | 0.0 | 0.00 | 0.17 | 0.02 | 89 | 1010.7 |
| 20260505092046 | 55 | 0 | 0.0 | 0.0 | 0.00 | 0.17 | 0.02 | 88 | 1010.7 |
| 20260505091049 | 54 | 0 | 0.0 | 0.0 | 0.00 | 0.17 | 0.02 | 89 | 1010.8 |
| 20260505085049 | 54 | 0 | 0.0 | 0.0 | 0.00 | 0.17 | 0.02 | 91 | 1011.0 |
| 20260505084047 | 53 | 0 | 0.0 | 0.0 | 0.00 | 0.17 | 0.02 | 92 | 1011.0 |
| 20260505083046 | 53 | 0 | 0.0 | 0.0 | 0.00 | 0.17 | 0.02 | 92 | 1011.2 |
| 20260505082050 | 53 | 0 | 0.0 | 0.0 | 0.00 | 0.17 | 0.02 | 92 | 1011.2 |
| 20260505081048 | 53 | 0 | 0.0 | 0.0 | 0.00 | 0.17 | 0.02 | 91 | 1011.2 |
| 20260505080047 | 53 | 0 | 0.0 | 0.0 | 0.00 | 0.17 | 0.02 | 93 | 1011.2 |
| 20260505075045 | 53 | 0 | 0.0 | 0.0 | 0.00 | 0.17 | 0.02 | 94 | 1011.3 |
| 20260505074044 | 52 | 0 | 0.0 | 0.0 | 0.00 | 0.17 | 0.02 | 95 | 1011.4 |
| 20260505073046 | 52 | 0 | 0.0 | 0.0 | 0.00 | 0.17 | 0.02 | 96 | 1011.4 |
| 20260505072045 | 52 | 0 | 0.0 | 0.0 | 0.00 | 0.17 | 0.02 | 96 | 1011.5 |
| 20260505071045 | 52 | 0 | 0.0 | 0.0 | 0.00 | 0.17 | 0.02 | 97 | 1011.5 |
| 20260505070039 | 51 | 0 | 0.0 | 0.0 | 0.00 | 0.17 | 0.02 | 97 | 1011.6 |
| 20260505065046 | 51 | 0 | 0.0 | 0.0 | 0.00 | 0.17 | 0.02 | 98 | 1011.6 |
| 20260505064044 | 51 | 0 | 0.0 | 0.0 | 0.00 | 0.17 | 0.02 | 99 | 1011.7 |
| 20260505063047 | 51 | 0 | 0.0 | 0.0 | 0.00 | 0.17 | 0.02 | 99 | 1011.7 |
| 20260505061047 | 50 | 0 | 0.0 | 0.0 | 0.00 | 0.17 | 0.02 | 10 | 1011.9 |
| 20260505054045 | 50 | 0 | 0.0 | 0.0 | 0.00 | 0.17 | 0.02 | 10 | 1011.8 |
| 20260505053045 | 50 | 0 | 0.0 | 0.0 | 0.00 | 0.17 | 0.02 | 10 | 1011.9 |
| 20260505052045 | 50 | 0 | 0.0 | 0.0 | 0.00 | 0.17 | 0.02 | 10 | 1011.9 |
| 20260505051047 | 50 | 0 | 0.0 | 0.0 | 0.00 | 0.17 | 0.02 | 10 | 1011.9 |
| 20260505041047 | 49 | 0 | 0.0 | 0.0 | 0.00 | 0.17 | 0.02 | 10 | 1011.9 |
| 20260505034048 | 49 | 0 | 0.0 | 0.0 | 0.00 | 0.17 | 0.02 | 10 | 1012.1 |
| 20260505033047 | 49 | 0 | 0.0 | 0.0 | 0.00 | 0.17 | 0.02 | 99 | 1012.3 |
| 20260505032048 | 49 | 0 | 0.0 | 0.0 | 0.00 | 0.17 | 0.02 | 99 | 1012.3 |
| 20260505031047 | 50 | 0 | 0.0 | 0.0 | 0.00 | 0.17 | 0.02 | 99 | 1012.3 |
| 20260505030049 | 50 | 0 | 0.0 | 0.0 | 0.00 | 0.17 | 0.02 | 99 | 1012.4 |
| 20260505025044 | 50 | 0 | 0.0 | 0.0 | 0.01 | 0.17 | 0.02 | 99 | 1012.6 |
| 20260505024048 | 50 | 0 | 0.0 | 0.0 | 0.01 | 0.17 | 0.02 | 99 | 1012.6 |